createdAt,value
2019-03-13T00:04:51.835Z,7.00
2019-03-13T00:07:24.021Z,7.01
2019-03-13T00:09:56.227Z,7.15
2019-03-13T00:12:28.513Z,7.16
2019-03-13T00:15:00.724Z,7.31
2019-03-13T00:17:32.901Z,7.61
2019-03-13T00:23:41.267Z,8.24
2019-03-13T00:26:15.450Z,8.77
2019-03-13T00:28:47.433Z,9.13
2019-03-13T00:31:19.404Z,9.40
2019-03-13T00:33:51.326Z,9.50
2019-03-13T00:36:23.253Z,9.59
2019-03-13T00:38:55.172Z,9.78
2019-03-13T00:41:27.146Z,9.72
2019-03-13T00:43:59.112Z,9.62
2019-03-13T00:47:11.927Z,9.44
2019-03-13T00:49:43.845Z,9.23
2019-03-13T00:52:17.580Z,8.99
2019-03-13T00:54:49.534Z,8.85
2019-03-13T00:57:42.738Z,8.81
2019-03-13T01:00:22.827Z,8.69
2019-03-13T01:03:57.337Z,8.56
2019-03-13T01:06:34.918Z,8.56
2019-03-13T01:09:06.891Z,8.54
2019-03-13T01:11:38.904Z,8.37
2019-03-13T01:14:10.929Z,8.44
2019-03-13T01:16:42.900Z,8.29
2019-03-13T01:19:14.881Z,8.31
2019-03-13T01:21:46.843Z,8.39
2019-03-13T01:24:21.004Z,8.17
2019-03-13T01:27:00.548Z,8.06
2019-03-13T01:29:32.582Z,8.03
2019-03-13T01:32:22.735Z,7.95
2019-03-13T01:35:23.577Z,8.01
2019-03-13T01:37:55.640Z,8.05
2019-03-13T01:40:27.824Z,8.04
2019-03-13T01:43:01.988Z,8.09
2019-03-13T01:45:34.001Z,7.97
2019-03-13T01:48:08.060Z,7.94
2019-03-13T01:50:41.903Z,7.87
2019-03-13T01:53:13.920Z,7.73
2019-03-13T01:55:45.879Z,7.80
2019-03-13T01:58:20.626Z,7.54
2019-03-13T02:00:52.575Z,7.45
2019-03-13T02:03:24.531Z,7.44
2019-03-13T02:05:56.472Z,7.47
2019-03-13T02:08:29.850Z,7.39
2019-03-13T02:11:01.857Z,7.19
2019-03-13T02:13:40.893Z,7.28
2019-03-13T02:16:14.778Z,7.25
2019-03-13T02:18:49.214Z,7.22
2019-03-13T02:21:23.230Z,7.20
2019-03-13T02:23:57.576Z,7.22
2019-03-13T02:26:31.819Z,7.17
2019-03-13T02:29:05.088Z,7.20
2019-03-13T02:31:41.302Z,7.19
2019-03-13T02:34:16.205Z,7.23
2019-03-13T02:36:50.075Z,7.22
2019-03-13T02:39:22.122Z,7.07
2019-03-13T02:41:56.497Z,7.00
2019-03-13T02:44:30.574Z,7.15
2019-03-13T02:47:04.456Z,7.05
2019-03-13T02:49:39.885Z,7.02
2019-03-13T02:52:13.983Z,6.98
2019-03-13T02:54:45.948Z,7.07
2019-03-13T02:57:17.900Z,6.87
2019-03-13T02:59:51.701Z,6.92
2019-03-13T03:02:31.156Z,6.81
2019-03-13T03:05:04.022Z,6.80
2019-03-13T03:07:38.949Z,6.84
2019-03-13T03:10:11.215Z,6.67
2019-03-13T03:12:45.715Z,6.64
2019-03-13T03:15:17.757Z,6.81
2019-03-13T03:17:49.681Z,6.64
2019-03-13T03:20:24.757Z,6.79
2019-03-13T03:22:58.281Z,6.71
2019-03-13T03:25:30.248Z,6.63
2019-03-13T03:28:03.507Z,6.59
2019-03-13T03:30:35.511Z,6.64
2019-03-13T03:33:07.485Z,6.73
2019-03-13T03:35:39.488Z,6.75
2019-03-13T03:38:11.470Z,6.66
2019-03-13T03:40:43.456Z,6.77
2019-03-13T03:43:15.426Z,6.70
2019-03-13T03:45:47.482Z,6.57
2019-03-13T03:48:19.465Z,6.46
2019-03-13T03:50:51.430Z,6.44
2019-03-13T03:53:25.179Z,6.35
2019-03-13T03:55:57.208Z,6.54
2019-03-13T03:58:30.024Z,6.48
2019-03-13T04:01:06.398Z,6.46
2019-03-13T04:03:38.401Z,6.39
2019-03-13T04:06:10.404Z,6.30
2019-03-13T04:08:42.393Z,6.27
2019-03-13T04:11:14.381Z,6.24
2019-03-13T04:13:46.326Z,6.23
2019-03-13T04:16:18.322Z,6.24
2019-03-13T04:18:50.419Z,6.26
2019-03-13T04:21:22.373Z,6.34
2019-03-13T04:23:54.384Z,6.39
2019-03-13T04:26:27.490Z,6.37
2019-03-13T04:28:59.462Z,6.51
2019-03-13T04:31:31.409Z,6.55
2019-03-13T04:34:03.377Z,6.64
2019-03-13T04:36:35.334Z,6.75
2019-03-13T04:39:07.390Z,6.65
2019-03-13T04:41:41.407Z,6.58
2019-03-13T04:44:13.390Z,6.62
2019-03-13T04:46:45.316Z,6.56
2019-03-13T04:49:17.274Z,6.58
2019-03-13T04:51:51.040Z,6.50
2019-03-13T04:54:23.004Z,6.45
2019-03-13T04:56:55.000Z,6.37
2019-03-13T04:59:26.978Z,6.37
2019-03-13T05:01:58.932Z,6.40
2019-03-13T05:04:30.926Z,6.35
2019-03-13T05:07:02.881Z,6.40
2019-03-13T05:09:38.911Z,6.29
2019-03-13T05:12:10.918Z,6.34
2019-03-13T05:14:42.951Z,6.44
2019-03-13T05:17:14.892Z,6.52
2019-03-13T05:19:46.861Z,6.50
2019-03-13T05:22:18.839Z,6.59
2019-03-13T05:24:50.831Z,6.34
2019-03-13T05:27:22.796Z,6.45
2019-03-13T05:29:56.250Z,6.40
2019-03-13T05:32:28.225Z,6.23
2019-03-13T05:35:00.298Z,6.23
2019-03-13T05:37:32.452Z,6.16
2019-03-13T05:40:04.458Z,6.05
2019-03-13T05:42:36.431Z,6.08
2019-03-13T05:45:08.635Z,6.08
2019-03-13T05:47:40.615Z,6.04
2019-03-13T05:50:12.658Z,6.01
2019-03-13T05:52:44.619Z,5.94
2019-03-13T05:55:16.621Z,6.04
2019-03-13T05:57:48.581Z,6.13
2019-03-13T06:00:21.938Z,6.10
2019-03-13T06:02:53.897Z,6.05
2019-03-13T06:05:25.886Z,5.97
2019-03-13T06:07:57.846Z,6.08
2019-03-13T06:10:32.385Z,6.03
2019-03-13T06:13:04.348Z,6.02
2019-03-13T06:15:36.367Z,5.94
2019-03-13T06:18:09.736Z,5.99
2019-03-13T06:20:42.105Z,6.06
2019-03-13T06:23:14.053Z,6.17
2019-03-13T06:25:46.041Z,6.12
2019-03-13T06:28:18.049Z,6.08
2019-03-13T06:30:50.020Z,6.15
2019-03-13T06:33:22.009Z,6.17
2019-03-13T06:35:53.993Z,6.11
2019-03-13T06:38:25.956Z,6.11
2019-03-13T06:40:57.907Z,6.29
2019-03-13T06:43:29.925Z,7.15
2019-03-13T06:46:01.876Z,7.82
2019-03-13T06:48:33.879Z,8.04
2019-03-13T06:51:05.833Z,8.56
2019-03-13T06:53:37.801Z,8.40
2019-03-13T06:56:09.776Z,8.13
2019-03-13T06:58:48.108Z,7.94
2019-03-13T07:01:41.503Z,8.55
2019-03-13T07:04:31.783Z,9.45
2019-03-13T07:07:23.401Z,9.71
2019-03-13T07:10:03.400Z,9.85
2019-03-13T07:12:43.611Z,9.62
2019-03-13T07:15:35.979Z,9.10
2019-03-13T07:18:27.574Z,8.53
2019-03-13T07:21:19.182Z,8.38
2019-03-13T07:24:10.751Z,8.09
2019-03-13T07:27:02.279Z,8.01
2019-03-13T07:29:53.832Z,7.98
2019-03-13T07:32:45.350Z,8.08
2019-03-13T07:35:36.915Z,8.33
2019-03-13T07:38:28.449Z,8.76
2019-03-13T07:41:20.029Z,9.34
2019-03-13T07:44:11.597Z,9.71
2019-03-13T07:47:03.141Z,9.88
2019-03-13T07:49:44.657Z,10.10
2019-03-13T07:52:53.207Z,10.41
2019-03-13T07:55:44.766Z,10.26
2019-03-13T07:58:21.850Z,10.04
2019-03-13T08:01:13.391Z,9.58
2019-03-13T08:03:53.333Z,9.43
2019-03-13T08:07:06.139Z,9.22
2019-03-13T08:09:57.682Z,9.15
2019-03-13T08:12:49.224Z,9.02
2019-03-13T08:15:40.782Z,8.84
2019-03-13T08:18:32.316Z,8.82
2019-03-13T08:21:23.854Z,8.68
2019-03-13T08:24:15.377Z,8.56
2019-03-13T08:27:06.913Z,8.63
2019-03-13T08:29:58.426Z,8.75
2019-03-13T08:32:49.960Z,9.11
2019-03-13T08:35:41.527Z,9.15
2019-03-13T08:38:18.268Z,9.42
2019-03-13T08:44:08.887Z,9.21
2019-03-13T08:47:00.468Z,8.97
2019-03-13T08:49:52.012Z,9.07
2019-03-13T08:52:43.554Z,9.12
2019-03-13T08:55:35.106Z,9.22
2019-03-13T08:58:26.685Z,9.15
2019-03-13T09:01:18.251Z,9.23
2019-03-13T09:04:09.814Z,9.42
2019-03-13T09:07:01.385Z,9.21
2019-03-13T09:09:52.924Z,9.24
2019-03-13T09:12:44.513Z,9.27
2019-03-13T09:15:36.059Z,9.40
2019-03-13T09:18:27.638Z,9.34
2019-03-13T09:21:19.201Z,9.15
2019-03-13T09:23:57.707Z,9.15
2019-03-13T09:26:49.236Z,9.11
2019-03-13T09:29:40.792Z,9.35
2019-03-13T09:32:32.358Z,9.47
2019-03-13T09:35:45.504Z,9.64
2019-03-13T09:38:38.360Z,9.73
2019-03-13T09:41:30.555Z,9.55
2019-03-13T09:44:22.112Z,9.70
2019-03-13T09:47:13.627Z,9.70
2019-03-13T09:50:05.192Z,9.55
2019-03-13T09:52:56.749Z,9.59
2019-03-13T09:55:44.403Z,9.89
2019-03-13T09:58:35.931Z,10.19
2019-03-13T10:01:27.576Z,10.11
2019-03-13T10:04:19.131Z,10.10
2019-03-13T10:07:10.631Z,10.15
2019-03-13T10:10:02.172Z,10.33
2019-03-13T10:12:53.729Z,10.27
2019-03-13T10:15:45.315Z,10.06
2019-03-13T10:18:36.840Z,10.11
2019-03-13T10:21:28.451Z,10.16
2019-03-13T10:24:19.997Z,10.08
2019-03-13T10:27:11.543Z,10.14
2019-03-13T10:30:03.112Z,10.15
2019-03-13T10:32:54.682Z,9.98
2019-03-13T10:35:46.278Z,9.87
2019-03-13T10:38:25.265Z,10.00
2019-03-13T10:41:16.844Z,9.91
2019-03-13T10:43:56.450Z,10.11
2019-03-13T10:47:09.276Z,10.03
2019-03-13T10:50:00.823Z,10.06
2019-03-13T10:52:52.395Z,10.00
2019-03-13T10:55:43.911Z,10.13
2019-03-13T10:58:35.469Z,10.27
2019-03-13T11:01:27.122Z,10.50
2019-03-13T11:04:18.688Z,10.47
2019-03-13T11:07:10.273Z,10.29
2019-03-13T11:10:01.831Z,10.31
2019-03-13T11:12:53.417Z,10.43
2019-03-13T11:15:44.983Z,10.45
2019-03-13T11:18:32.669Z,10.51
2019-03-13T11:21:12.636Z,10.58
2019-03-13T11:26:58.922Z,10.45
2019-03-13T11:30:11.738Z,10.58
2019-03-13T11:32:59.662Z,10.93
2019-03-13T11:35:51.203Z,10.81
2019-03-13T11:38:42.734Z,10.58
2019-03-13T11:41:34.240Z,10.50
2019-03-13T11:44:25.802Z,10.40
2019-03-13T11:47:11.607Z,10.31
2019-03-13T11:50:03.160Z,10.01
2019-03-13T11:52:54.701Z,10.04
2019-03-13T11:55:46.307Z,10.27
2019-03-13T11:58:37.821Z,10.25
2019-03-13T12:01:29.365Z,10.26
2019-03-13T12:04:20.922Z,10.04
2019-03-13T12:07:02.546Z,9.97
2019-03-13T12:09:51.394Z,9.98
2019-03-13T12:12:42.945Z,9.92
2019-03-13T12:15:34.508Z,9.80
2019-03-13T12:18:26.036Z,9.58
2019-03-13T12:21:38.983Z,9.70
2019-03-13T12:24:20.388Z,9.74
2019-03-13T12:27:10.583Z,9.50
2019-03-13T12:33:38.536Z,9.45
2019-03-13T12:36:30.190Z,9.40
2019-03-13T12:39:21.739Z,9.60
2019-03-13T12:42:34.534Z,9.78
2019-03-13T12:45:28.748Z,9.92
2019-03-13T12:48:20.310Z,10.02
2019-03-13T12:51:11.891Z,10.02
2019-03-13T12:54:03.399Z,10.11
2019-03-13T12:56:54.953Z,10.21
2019-03-13T12:59:46.480Z,10.48
2019-03-13T13:02:38.051Z,10.65
2019-03-13T13:05:29.597Z,10.63
2019-03-13T13:08:21.217Z,10.59
2019-03-13T13:11:12.815Z,10.42
2019-03-13T13:14:04.358Z,10.38
2019-03-13T13:16:55.981Z,10.26
2019-03-13T13:19:27.987Z,10.25
2019-03-13T13:21:59.984Z,10.15
2019-03-13T13:24:32.015Z,10.02
2019-03-13T13:27:04.037Z,10.07
2019-03-13T13:29:36.119Z,10.11
2019-03-13T13:32:08.290Z,10.23
2019-03-13T13:34:40.269Z,10.27
2019-03-13T13:37:12.242Z,10.22
2019-03-13T13:39:44.330Z,10.13
2019-03-13T13:42:16.358Z,10.01
2019-03-13T13:44:48.414Z,9.99
2019-03-13T13:47:20.393Z,10.02
2019-03-13T13:49:59.729Z,10.06
2019-03-13T13:53:07.130Z,9.84
2019-03-13T13:55:39.093Z,9.49
2019-03-13T13:58:11.103Z,9.22
2019-03-13T14:00:43.085Z,8.87
2019-03-13T14:03:15.113Z,8.73
2019-03-13T14:05:48.902Z,8.53
2019-03-13T14:08:20.962Z,8.56
2019-03-13T14:10:52.977Z,8.62
2019-03-13T14:13:26.105Z,8.32
2019-03-13T14:15:58.357Z,8.35
2019-03-13T14:18:30.409Z,8.29
2019-03-13T14:21:02.424Z,8.39
2019-03-13T14:23:34.642Z,8.48
2019-03-13T14:26:06.687Z,8.53
2019-03-13T14:28:38.690Z,8.63
2019-03-13T14:31:10.835Z,8.79
2019-03-13T14:33:43.948Z,8.71
2019-03-13T14:36:15.938Z,8.75
2019-03-13T14:38:48.032Z,8.72
2019-03-13T14:41:20.095Z,8.74
2019-03-13T14:43:52.098Z,8.71
2019-03-13T14:46:24.109Z,8.62
2019-03-13T14:48:56.124Z,8.74
2019-03-13T14:51:28.147Z,8.78
2019-03-13T14:54:00.175Z,8.88
2019-03-13T14:56:32.209Z,8.95
2019-03-13T14:59:04.182Z,8.98
2019-03-13T15:01:36.219Z,9.09
2019-03-13T15:04:08.238Z,9.21
2019-03-13T15:06:40.231Z,9.29
2019-03-13T15:09:12.321Z,9.29
2019-03-13T15:11:44.392Z,9.22
2019-03-13T15:14:16.434Z,9.48
2019-03-13T15:16:48.459Z,9.58
2019-03-13T15:19:20.457Z,9.70
2019-03-13T15:21:52.499Z,9.77
2019-03-13T15:24:24.510Z,9.74
2019-03-13T15:26:56.541Z,9.62
2019-03-13T15:29:28.552Z,9.71
2019-03-13T15:32:00.538Z,9.73
2019-03-13T15:34:32.522Z,9.62
2019-03-13T15:37:04.569Z,9.59
2019-03-13T15:39:36.537Z,9.68
2019-03-13T15:42:08.609Z,9.59
2019-03-13T15:44:40.609Z,9.46
2019-03-13T15:47:12.624Z,9.45
2019-03-13T15:49:44.617Z,9.40
2019-03-13T15:52:16.679Z,9.18
2019-03-13T15:54:48.613Z,9.29
2019-03-13T15:57:20.640Z,9.34
2019-03-13T15:59:52.660Z,9.31
2019-03-13T16:02:24.645Z,9.23
2019-03-13T16:04:56.675Z,9.32
2019-03-13T16:07:28.659Z,9.35
2019-03-13T16:10:03.152Z,9.34
2019-03-13T16:12:34.510Z,9.33
2019-03-13T16:15:09.170Z,9.21
2019-03-13T16:17:41.151Z,9.23
2019-03-13T16:20:13.332Z,9.27
2019-03-13T16:22:48.593Z,9.23
2019-03-13T16:25:20.704Z,9.22
2019-03-13T16:27:52.735Z,9.28
2019-03-13T16:30:25.758Z,9.33
2019-03-13T16:32:57.787Z,9.20
2019-03-13T16:35:29.828Z,9.19
2019-03-13T16:38:01.792Z,9.28
2019-03-13T16:40:33.828Z,9.27
2019-03-13T16:43:05.807Z,9.20
2019-03-13T16:45:37.885Z,9.19
2019-03-13T16:48:09.912Z,9.20
2019-03-13T16:50:41.939Z,9.17
2019-03-13T16:53:13.947Z,9.16
2019-03-13T16:55:45.968Z,9.05
2019-03-13T16:58:17.949Z,9.03
2019-03-13T17:00:50.756Z,9.08
2019-03-13T17:03:22.879Z,9.11
2019-03-13T17:05:55.026Z,8.94
2019-03-13T17:08:27.008Z,8.98
2019-03-13T17:10:59.031Z,8.93
2019-03-13T17:13:31.004Z,8.89
2019-03-13T17:16:03.058Z,8.86
2019-03-13T17:18:35.123Z,8.86
2019-03-13T17:21:07.567Z,8.91
2019-03-13T17:23:39.620Z,8.79
2019-03-13T17:26:11.699Z,8.69
2019-03-13T17:28:43.875Z,8.68
2019-03-13T17:31:15.903Z,8.75
2019-03-13T17:33:47.913Z,8.75
2019-03-13T17:36:19.927Z,8.73
2019-03-13T17:38:51.995Z,8.68
2019-03-13T17:41:23.999Z,8.73
2019-03-13T17:43:56.070Z,8.64
2019-03-13T17:46:28.102Z,8.53
2019-03-13T17:49:00.124Z,8.67
2019-03-13T17:51:32.119Z,8.62
2019-03-13T17:54:04.139Z,8.62
2019-03-13T17:56:36.205Z,8.59
2019-03-13T17:59:08.252Z,8.53
2019-03-13T18:01:40.257Z,8.54
2019-03-13T18:04:12.444Z,8.56
2019-03-13T18:06:44.487Z,8.51
2019-03-13T18:09:16.583Z,8.46
2019-03-13T18:11:48.597Z,8.38
2019-03-13T18:14:20.709Z,8.48
2019-03-13T18:16:52.794Z,8.46
2019-03-13T18:19:24.905Z,8.43
2019-03-13T18:21:56.929Z,8.34
2019-03-13T18:24:29.017Z,8.33
2019-03-13T18:27:00.986Z,8.42
2019-03-13T18:29:33.024Z,8.40
2019-03-13T18:32:05.116Z,8.32
2019-03-13T18:34:37.188Z,8.18
2019-03-13T18:37:09.206Z,8.16
2019-03-13T18:39:41.314Z,8.12
2019-03-13T18:42:13.341Z,7.94
2019-03-13T18:44:45.396Z,7.96
2019-03-13T18:47:17.499Z,7.90
2019-03-13T18:49:49.529Z,7.94
2019-03-13T18:52:21.538Z,7.92
2019-03-13T18:54:53.606Z,7.79
2019-03-13T18:57:25.602Z,7.67
2019-03-13T18:59:57.632Z,7.72
2019-03-13T19:02:29.689Z,7.76
2019-03-13T19:05:01.687Z,7.73
2019-03-13T19:07:33.729Z,7.72
2019-03-13T19:10:06.436Z,7.67
2019-03-13T19:12:38.499Z,7.76
2019-03-13T19:15:15.252Z,7.90
2019-03-13T19:17:47.696Z,7.87
2019-03-13T19:20:20.464Z,7.87
2019-03-13T19:22:52.808Z,7.89
2019-03-13T19:25:25.007Z,7.80
2019-03-13T19:27:57.143Z,7.80
2019-03-13T19:30:29.616Z,7.79
2019-03-13T19:33:02.183Z,7.79
2019-03-13T19:35:34.267Z,7.67
2019-03-13T19:38:06.669Z,7.64
2019-03-13T19:40:39.129Z,7.73
2019-03-13T19:43:11.197Z,7.70
2019-03-13T19:45:43.356Z,7.60
2019-03-13T19:48:15.431Z,7.59
2019-03-13T19:50:47.454Z,7.56
2019-03-13T19:53:19.692Z,7.55
2019-03-13T19:55:51.843Z,7.59
2019-03-13T19:58:23.924Z,7.73
2019-03-13T20:00:55.959Z,7.74
2019-03-13T20:03:28.138Z,7.68
2019-03-13T20:06:00.143Z,7.74
2019-03-13T20:08:32.238Z,7.67
2019-03-13T20:11:04.227Z,7.62
2019-03-13T20:13:36.356Z,7.62
2019-03-13T20:16:08.468Z,7.62
2019-03-13T20:18:40.585Z,7.51
2019-03-13T20:21:12.760Z,7.57
2019-03-13T20:23:44.865Z,7.41
2019-03-13T20:26:16.914Z,7.38
2019-03-13T20:28:48.942Z,7.42
2019-03-13T20:31:20.951Z,7.46
2019-03-13T20:33:53.127Z,7.25
2019-03-13T20:36:25.148Z,7.25
2019-03-13T20:38:57.207Z,7.33
2019-03-13T20:41:29.227Z,7.36
2019-03-13T20:44:01.290Z,7.31
2019-03-13T20:46:33.317Z,7.40
2019-03-13T20:49:05.407Z,7.42
2019-03-13T20:51:37.471Z,7.26
2019-03-13T20:54:09.567Z,7.22
2019-03-13T20:57:22.471Z,7.26
2019-03-13T20:59:54.527Z,7.32
2019-03-13T21:02:26.545Z,7.25
2019-03-13T21:04:58.567Z,7.12
2019-03-13T21:07:30.585Z,7.08
2019-03-13T21:10:02.871Z,6.99
2019-03-13T21:12:34.852Z,7.02
2019-03-13T21:18:07.394Z,7.06
2019-03-13T21:20:39.452Z,6.94
2019-03-13T21:23:11.464Z,6.93
2019-03-13T21:25:43.495Z,6.93
2019-03-13T21:28:15.484Z,6.84
2019-03-13T21:30:47.503Z,6.84
2019-03-13T21:33:19.626Z,6.69
2019-03-13T21:35:51.692Z,6.61
2019-03-13T21:41:36.793Z,6.46
2019-03-13T21:47:21.868Z,6.25
2019-03-13T21:49:53.942Z,6.16
2019-03-13T21:52:26.024Z,6.16
2019-03-13T21:55:17.616Z,6.03
2019-03-13T21:58:09.154Z,5.99
2019-03-13T22:00:41.194Z,5.78
2019-03-13T22:03:13.236Z,5.81
2019-03-13T22:08:58.360Z,5.70
2019-03-13T22:11:30.354Z,5.63
2019-03-13T22:14:02.425Z,5.68
2019-03-13T22:16:34.485Z,5.60
2019-03-13T22:19:06.524Z,5.54
2019-03-13T22:24:51.564Z,5.54
2019-03-13T22:27:23.578Z,5.35
2019-03-13T22:29:55.677Z,5.39
2019-03-13T22:35:27.274Z,5.16
2019-03-13T22:37:59.257Z,5.23
2019-03-13T22:40:31.281Z,5.29
2019-03-13T22:43:03.536Z,5.13
2019-03-13T22:48:57.643Z,5.19
2019-03-13T22:51:22.537Z,5.39
2019-03-13T22:53:54.569Z,5.38
2019-03-13T22:56:26.590Z,5.41
2019-03-13T22:58:58.589Z,5.38
2019-03-13T23:01:30.882Z,5.34
2019-03-13T23:04:02.948Z,5.39
2019-03-13T23:06:34.927Z,5.38
2019-03-13T23:09:10.563Z,5.38
2019-03-13T23:11:42.563Z,5.34
2019-03-13T23:14:15.646Z,5.41
2019-03-13T23:16:48.782Z,5.35
2019-03-13T23:19:20.815Z,5.43
2019-03-13T23:21:52.849Z,5.43
2019-03-13T23:24:24.873Z,5.55
2019-03-13T23:26:57.051Z,5.74
2019-03-13T23:29:29.006Z,5.69
2019-03-13T23:32:01.017Z,5.65
2019-03-13T23:34:33.523Z,5.62
2019-03-13T23:37:05.721Z,5.71
2019-03-13T23:39:37.689Z,5.82
2019-03-13T23:42:09.799Z,5.75
2019-03-13T23:44:41.752Z,5.74
2019-03-13T23:47:13.744Z,5.75
2019-03-13T23:49:45.706Z,5.58
2019-03-13T23:52:17.702Z,5.56
2019-03-13T23:54:49.690Z,5.55
2019-03-13T23:57:21.669Z,5.67
2019-03-13T23:59:53.620Z,5.68
